Hauptseite
METAR-TAF:

METAR-TAF

Flughäfen :

Flughafen Bacău

Bacau, Rumänien

Breite: 46-35N, Länge: 026-58E, Höhe: 184 m

Beobachtung

Neuester Wetterbericht von vor 22 Minuten, um 03:30 UTC
Windstille
Temperatur 7°C
Luftfeuchtigkeit 81%
Luftdruck 1020 hPa
Sichtweite 10 km oder mehr
Aufgelockert bewölkt in der Höhe von 6000 ft

METAR: LRBC 230330Z 00000KT 9999 SCT060 07/04 Q1020

Zeit: 06:52 (03:52 UTC)

Prognose

Neuester Wetterbericht von vor 1 Stunde und 52 Minuten, um 02:00 UTC
Gültige Prognose vom 23 um 03 UTC bis 23 um 12 UTC
Wind 3 kt aus unterschiedlichen Richtungen
Sichtweite 10 km oder mehr
Aufgelockert bewölkt in der Höhe von 5000 ft

TAF: LRBC 230200Z 2303/2312 VRB03KT 9999 SCT050

Wetterbeobachtungen und Prognosen von mehr als 4000 Flughäfen (METAR und TAF Bericht).

Die verfügbaren Stationen werden durch gelbe und rote Markierungen auf der Karte dargestellt.

Führen Sie die Maus auf sie, um den Namen der Station zu sehen.

Darauf klicken, um die Beobachtung von Wetterbeobachtungen und Prognosen zu sehen.

Um die Karte zu ändern : klicken Sie auf den grünen Tasten mit einem schwarzen Kreuz Zum Vergrößern, auf den grünen Button mit einem Gedankenstrich zu verkleinern, oder auf die grünen Pfeile für benachbarte Karten.


METAR-TAF: